Terminal Aerodrome Forecast
Issued by NWS

Home | Current Version | Previous Version | Text Only | Print | Product List | Glossary On
Versions: 1 2 3 4 5 6 7 8 9 10 11 12 13 14 15 16 17 18 19 20 21 22 23 24
710
FTUS43 KGRR 162327
TAFAZO
TAF
KAZO 162327Z 1700/1724 12003KT P6SM SKC
     FM170300 08005KT P6SM SCT035
     FM170900 10008KT P6SM BKN008
     FM171300 11009KT 5SM BR OVC003
     FM172100 17006KT P6SM OVC025=

USA.gov is the U.S. government's official web portal to all federal, state and local government web resources and services.